createdAt,value
2022-12-01T00:03:51.354Z,5.07
2022-12-01T00:09:18.026Z,5.14
2022-12-01T00:14:23.141Z,5.08
2022-12-01T00:19:26.176Z,5.05
2022-12-01T00:24:30.260Z,4.98
2022-12-01T00:29:32.975Z,4.99
2022-12-01T00:34:37.856Z,4.99
2022-12-01T00:39:41.952Z,5.00
2022-12-01T00:44:44.684Z,5.05
2022-12-01T00:49:47.814Z,4.94
2022-12-01T00:54:52.129Z,5.03
2022-12-01T00:59:54.827Z,5.14
2022-12-01T01:04:57.516Z,4.98
2022-12-01T01:10:01.621Z,5.10
2022-12-01T01:15:04.863Z,5.01
2022-12-01T01:20:08.757Z,5.09
2022-12-01T01:25:12.784Z,4.93
2022-12-01T01:30:15.798Z,4.90
2022-12-01T01:35:18.663Z,4.85
2022-12-01T01:40:22.704Z,4.94
2022-12-01T01:45:27.200Z,4.94
2022-12-01T01:50:30.346Z,4.86
2022-12-01T01:55:35.662Z,4.92
2022-12-01T02:00:39.342Z,4.97
2022-12-01T02:05:44.719Z,4.90
2022-12-01T02:11:01.396Z,4.88
2022-12-01T02:16:09.935Z,4.83
2022-12-01T02:21:26.654Z,4.90
2022-12-01T02:26:40.528Z,4.95
2022-12-01T02:31:48.592Z,4.86
2022-12-01T02:36:55.361Z,4.96
2022-12-01T02:42:03.425Z,5.03
2022-12-01T02:47:11.348Z,4.97
2022-12-01T02:52:15.498Z,4.76
2022-12-01T02:57:18.222Z,4.79
2022-12-01T03:02:31.862Z,4.84
2022-12-01T03:07:46.436Z,4.88
2022-12-01T03:12:59.050Z,4.81
2022-12-01T03:18:09.693Z,4.85
2022-12-01T03:23:16.044Z,4.85
2022-12-01T03:28:29.665Z,4.87
2022-12-01T03:33:35.727Z,4.86
2022-12-01T03:38:38.721Z,4.85
2022-12-01T03:43:43.585Z,4.79
2022-12-01T03:48:47.666Z,4.79
2022-12-01T03:53:54.303Z,4.85
2022-12-01T03:58:58.496Z,4.83
2022-12-01T04:04:07.678Z,4.84
2022-12-01T04:09:10.385Z,4.86
2022-12-01T04:14:13.102Z,4.81
2022-12-01T04:19:17.483Z,4.72
2022-12-01T04:24:20.279Z,4.76
2022-12-01T04:29:23.317Z,4.80
2022-12-01T04:34:27.448Z,4.84
2022-12-01T04:39:30.219Z,4.78
2022-12-01T04:44:35.092Z,4.80
2022-12-01T04:49:39.534Z,4.71
2022-12-01T04:54:42.247Z,4.69
2022-12-01T04:59:44.972Z,4.57
2022-12-01T05:04:49.030Z,4.66
2022-12-01T05:09:51.986Z,4.67
2022-12-01T05:14:54.859Z,4.57
2022-12-01T05:20:16.230Z,4.68
2022-12-01T05:25:19.122Z,4.68
2022-12-01T05:30:25.652Z,4.72
2022-12-01T05:35:33.827Z,4.61
2022-12-01T05:40:36.888Z,4.64
2022-12-01T05:45:39.614Z,4.63
2022-12-01T05:50:43.988Z,4.72
2022-12-01T05:55:52.997Z,4.66
2022-12-01T06:00:55.737Z,4.63
2022-12-01T06:05:59.803Z,4.63
2022-12-01T06:11:02.524Z,4.61
2022-12-01T06:16:07.221Z,4.61
2022-12-01T06:21:11.280Z,4.69
2022-12-01T06:26:14.114Z,4.71
2022-12-01T06:31:17.005Z,4.63
2022-12-01T06:36:22.236Z,4.69
2022-12-01T06:41:24.915Z,4.69
2022-12-01T06:46:27.679Z,4.69
2022-12-01T06:51:34.167Z,4.57
2022-12-01T06:56:36.827Z,4.55
2022-12-01T07:01:39.797Z,4.66
2022-12-01T07:06:43.949Z,4.57
2022-12-01T07:11:47.066Z,4.66
2022-12-01T07:16:49.907Z,4.55
2022-12-01T07:21:54.396Z,4.46
2022-12-01T07:26:57.121Z,4.65
2022-12-01T07:31:59.894Z,4.64
2022-12-01T07:37:03.980Z,4.56
2022-12-01T07:42:06.889Z,4.96
2022-12-01T07:47:09.627Z,5.39
2022-12-01T07:52:13.775Z,5.16
2022-12-01T07:57:18.110Z,4.88
2022-12-01T08:02:20.957Z,5.06
2022-12-01T08:07:29.551Z,4.91
2022-12-01T08:12:32.622Z,4.89
2022-12-01T08:17:35.351Z,4.93
2022-12-01T08:22:39.517Z,5.22
2022-12-01T08:27:42.187Z,4.78
2022-12-01T08:32:44.884Z,4.89
2022-12-01T08:37:48.952Z,4.68
2022-12-01T08:42:53.204Z,4.68
2022-12-01T08:47:58.745Z,4.63
2022-12-01T08:53:02.833Z,4.58
2022-12-01T08:58:05.506Z,4.74
2022-12-01T09:03:08.223Z,4.59
2022-12-01T09:08:29.566Z,4.72
2022-12-01T09:13:32.753Z,4.73
2022-12-01T09:18:36.143Z,4.72
2022-12-01T09:23:40.700Z,4.86
2022-12-01T09:28:43.372Z,4.88
2022-12-01T09:33:46.084Z,4.94
2022-12-01T09:38:50.120Z,4.87
2022-12-01T09:43:57.683Z,5.00
2022-12-01T09:49:02.866Z,5.11
2022-12-01T09:54:08.039Z,5.17
2022-12-01T09:59:17.798Z,5.26
2022-12-01T10:04:22.345Z,5.12
2022-12-01T10:09:30.655Z,5.23
2022-12-01T10:14:35.264Z,5.63
2022-12-01T10:19:43.743Z,5.56
2022-12-01T10:24:55.247Z,5.41
2022-12-01T10:30:04.937Z,5.33
2022-12-01T10:35:09.443Z,5.13
2022-12-01T10:40:15.492Z,5.38
2022-12-01T10:45:21.791Z,5.65
2022-12-01T10:50:28.011Z,5.75
2022-12-01T10:55:32.826Z,5.67
2022-12-01T11:06:03.112Z,5.83
2022-12-01T11:11:26.575Z,5.78
2022-12-01T11:16:36.075Z,5.65
2022-12-01T11:21:47.144Z,5.88
2022-12-01T11:26:51.211Z,5.89
2022-12-01T11:31:54.035Z,5.98
2022-12-01T11:36:59.977Z,5.74
2022-12-01T11:42:04.977Z,5.86
2022-12-01T11:47:23.154Z,5.83
2022-12-01T11:52:30.626Z,5.84
2022-12-01T11:57:35.250Z,5.72
2022-12-01T12:02:43.788Z,5.82
2022-12-01T12:07:53.313Z,5.78
2022-12-01T12:13:07.000Z,5.68
2022-12-01T12:18:40.988Z,5.47
2022-12-01T12:23:59.122Z,5.75
2022-12-01T12:29:27.206Z,5.62
2022-12-01T12:34:40.024Z,5.64
2022-12-01T12:40:05.654Z,5.99
2022-12-01T12:45:17.940Z,6.10
2022-12-01T12:50:28.642Z,5.60
2022-12-01T12:55:34.584Z,5.62
2022-12-01T13:00:41.787Z,5.45
2022-12-01T13:05:49.802Z,5.36
2022-12-01T13:10:57.970Z,5.18
2022-12-01T13:16:04.294Z,5.23
2022-12-01T13:21:07.272Z,5.20
2022-12-01T13:26:10.936Z,4.64
2022-12-01T13:31:16.507Z,4.98
2022-12-01T13:41:44.635Z,4.89
2022-12-01T13:46:57.333Z,5.12
2022-12-01T13:52:28.360Z,4.99
2022-12-01T13:57:33.751Z,4.95
2022-12-01T14:02:38.022Z,4.95
2022-12-01T14:07:41.251Z,4.88
2022-12-01T14:12:45.547Z,4.60
2022-12-01T14:18:00.415Z,4.82
2022-12-01T14:23:06.104Z,4.72
2022-12-01T14:28:15.120Z,4.65
2022-12-01T14:33:51.002Z,4.78
2022-12-01T14:38:55.785Z,4.71
2022-12-01T14:44:06.565Z,4.77
2022-12-01T14:49:15.355Z,4.56
2022-12-01T14:54:21.732Z,4.64
2022-12-01T14:59:26.226Z,4.42
2022-12-01T15:04:30.892Z,4.54
2022-12-01T15:09:34.994Z,4.47
2022-12-01T15:14:39.580Z,4.49
2022-12-01T15:19:43.982Z,4.29
2022-12-01T15:24:47.115Z,4.40
2022-12-01T15:29:50.271Z,4.35
2022-12-01T15:34:55.628Z,4.41
2022-12-01T15:45:25.195Z,4.36
2022-12-01T15:50:31.241Z,4.24
2022-12-01T15:55:36.003Z,4.36
2022-12-01T16:00:39.043Z,3.96
2022-12-01T16:05:45.295Z,4.08
2022-12-01T16:11:12.275Z,3.83
2022-12-01T16:16:39.558Z,3.92
2022-12-01T16:21:46.254Z,4.11
2022-12-01T16:26:50.560Z,4.24
2022-12-01T16:37:18.728Z,4.12
2022-12-01T16:42:22.248Z,4.20
2022-12-01T16:47:26.195Z,4.08
2022-12-01T16:52:46.185Z,4.17
2022-12-01T16:57:49.168Z,4.01
2022-12-01T17:02:52.677Z,4.03
2022-12-01T17:07:57.136Z,4.14
2022-12-01T17:13:00.140Z,4.02
2022-12-01T17:18:02.849Z,4.07
2022-12-01T17:23:07.172Z,3.97
2022-12-01T17:28:09.924Z,4.05
2022-12-01T17:33:12.837Z,4.06
2022-12-01T17:38:16.875Z,3.95
2022-12-01T17:43:20.846Z,4.14
2022-12-01T17:48:23.612Z,4.03
2022-12-01T17:53:27.697Z,4.02
2022-12-01T17:58:31.332Z,3.94
2022-12-01T18:03:34.060Z,3.89
2022-12-01T18:08:38.570Z,3.97
2022-12-01T18:13:43.699Z,3.90
2022-12-01T18:18:46.468Z,3.74
2022-12-01T18:23:51.174Z,3.82
2022-12-01T18:28:58.225Z,3.78
2022-12-01T18:34:02.973Z,3.72
2022-12-01T18:39:08.581Z,3.79
2022-12-01T18:44:11.654Z,3.79
2022-12-01T18:49:14.383Z,3.78
2022-12-01T18:54:18.513Z,3.71
2022-12-01T18:59:22.799Z,3.78
2022-12-01T19:04:25.540Z,3.50
2022-12-01T19:09:29.607Z,3.61
2022-12-01T19:14:32.854Z,3.55
2022-12-01T19:19:37.639Z,3.67
2022-12-01T19:24:44.836Z,3.63
2022-12-01T19:29:52.268Z,3.63
2022-12-01T19:34:55.554Z,3.57
2022-12-01T19:39:59.629Z,3.34
2022-12-01T19:45:02.476Z,3.64
2022-12-01T19:50:06.072Z,3.35
2022-12-01T19:55:10.996Z,3.29
2022-12-01T20:00:14.592Z,3.20
2022-12-01T20:05:17.442Z,3.40
2022-12-01T20:10:21.559Z,3.49
2022-12-01T20:15:24.277Z,3.30
2022-12-01T20:20:27.394Z,3.34
2022-12-01T20:25:31.487Z,3.28
2022-12-01T20:30:34.232Z,3.36
2022-12-01T20:35:36.992Z,3.33
2022-12-01T20:40:41.087Z,3.49
2022-12-01T20:45:43.863Z,3.47
2022-12-01T20:50:46.633Z,3.34
2022-12-01T20:55:50.772Z,3.58
2022-12-01T21:00:54.187Z,3.51
2022-12-01T21:05:59.910Z,3.48
2022-12-01T21:11:07.412Z,3.53
2022-12-01T21:16:21.210Z,3.34
2022-12-01T21:21:27.429Z,3.28
2022-12-01T21:26:31.482Z,2.94
2022-12-01T21:31:34.416Z,3.05
2022-12-01T21:36:37.244Z,3.13
2022-12-01T21:41:41.359Z,3.12
2022-12-01T21:46:44.407Z,3.29
2022-12-01T21:51:48.440Z,3.20
2022-12-01T21:56:54.499Z,3.23
2022-12-01T22:01:57.323Z,3.21
2022-12-01T22:07:00.071Z,3.46
2022-12-01T22:12:23.520Z,3.18
2022-12-01T22:17:26.268Z,3.34
2022-12-01T22:22:29.906Z,3.17
2022-12-01T22:27:36.585Z,3.27
2022-12-01T22:32:51.852Z,3.42
2022-12-01T22:37:56.621Z,3.07
2022-12-01T22:43:01.537Z,3.21
2022-12-01T22:48:05.276Z,3.24
2022-12-01T22:53:14.027Z,3.20
2022-12-01T22:58:23.663Z,3.27
2022-12-01T23:03:27.303Z,3.19
2022-12-01T23:08:30.023Z,3.10
2022-12-01T23:13:35.376Z,3.13
2022-12-01T23:18:38.090Z,3.10
2022-12-01T23:23:40.860Z,3.05
2022-12-01T23:28:44.988Z,3.10
2022-12-01T23:33:47.729Z,3.09
2022-12-01T23:38:52.323Z,3.20
2022-12-01T23:43:57.140Z,3.20
2022-12-01T23:49:02.029Z,3.15
2022-12-01T23:54:07.881Z,3.19
2022-12-01T23:59:13.768Z,3.17
